hwlogo.jpg (8581 bytes)
Home Your Weather Products Services Weather On Your Site Contact
HW Version Logo
Weather Info
Your Weather (Options)
Canadian Weather
International Weather
Enter your " Place, State", US Zip Code or ICAO:  
Forecast Information Radar Information
Schefferville, Canada  Lat: 54.80N, Lon: 66.8W
ICAO Used: CYKL
Current Conditions
Updated: 10:00 PM GMT-7 SUN FEB 18 2018
Sun & Moon Information
Mostly Cloudy
Mostly Cloudy
Temp: -28°C
Humidity: 68%
Wind Speed: SSW 9 MPH
Barometer: 1016 mb
Dewpoint: -32°C
Heat Index: -28°C
Wind Chill: -38°C
Civil Twilight: 4:06 AM GMT-7 Moon Phase:
Waxing Crescent Moon
Sunrise: 4:43 AM GMT-7
Sunset: 2:38 PM GMT-7
Civil Twilight: 3:15 PM GMT-7
Forecast for Schefferville, QC, Canada:
(Forecast based on TAF for )
0700 PM GMT-7 SUN FEB 18 2018
  
OVERNIGHT MORNING
Partly
Cloudy
Partly
Cloudy
ZoneCast:
Dated: 0700 PM GMT-7 SUN FEB 18 2018
Overnight...Partly cloudy with winds from the northnorthwest at 6 mph.

Morning...Partly cloudy with winds from the southwest at 12 mph.

Original Encoded TAF:
Dated: 0700 PM GMT-7 SUN FEB 18 2018
2018/02/19 02:00
TAF CYKL 190141Z 1902/1914 34005KT WS005/27025KT P6SM FEW020 
     FM190800 22010KT P6SM FEW020 
      RMK FCST BASED ON AUTO OBS. NXT FCST BY 190800Z